Terminal Aerodrome Forecast
Issued by NWS

Current Version | Previous Version | Graphics & Text | Print | Product List | Glossary On
Versions: 1 2 3 4 5 6 7 8 9 10 11 12 13 14 15 16
000
FTUS41 KRNK 260540
TAFLWB
TAF
KLWB 260540Z 2606/2706 00000KT 6SM BR BKN010
     FM260800 00000KT 4SM BR SCT001 BKN007
     FM261000 00000KT 1/4SM FG BKN001
     FM261300 00000KT 5SM BR SCT015
     FM261400 VRB03KT P6SM SKC=

USA.gov is the U.S. government's official web portal to all federal, state and local government web resources and services.